createdAt,value
2023-01-02T09:24:25.917Z,14.17000008
2023-01-02T09:24:32.964Z,14.06000042
2023-01-02T09:25:35.978Z,14.10000038
2023-01-02T09:26:33.718Z,13.98999977
2023-01-02T09:27:31.216Z,13.81999969
2023-01-02T09:28:32.409Z,13.63000011
2023-01-02T09:29:29.938Z,13.47000027
2023-01-02T09:30:31.061Z,13.28999996
2023-01-02T09:31:30.131Z,13.14999962
2023-01-02T09:33:24.761Z,12.85999966
2023-01-02T09:34:23.053Z,12.76000023
2023-01-02T09:35:19.978Z,12.67000008
2023-01-02T09:36:18.571Z,12.60000038
2023-01-02T09:38:18.818Z,12.42000008
2023-01-02T09:39:15.509Z,12.35999966
2023-01-02T09:40:21.874Z,12.26000023
2023-01-02T09:41:11.715Z,12.26000023
2023-01-02T09:42:07.551Z,12.25
2023-01-02T09:43:20.206Z,12.21000004
2023-01-02T09:44:13.693Z,12.14000034
2023-01-02T09:45:09.303Z,12.10999966
2023-01-02T09:46:07.490Z,12.06999969
2023-01-02T09:48:01.276Z,12
2023-01-02T09:48:56.632Z,11.97999954
2023-01-02T09:49:52.559Z,11.94999981
2023-01-02T09:50:56.682Z,11.93000031
2023-01-02T09:51:07.759Z,11.92000008
2023-01-02T09:53:00.244Z,11.93999958
2023-01-02T09:53:58.447Z,11.90999985
2023-01-02T09:54:57.839Z,11.86999989
2023-01-02T09:56:23.077Z,11.85000038
2023-01-02T09:58:03.460Z,11.85000038
2023-01-02T09:59:04.835Z,11.81000042
2023-01-02T10:00:04.819Z,11.75
2023-01-02T10:01:03.976Z,11.73999977
2023-01-02T10:03:05.976Z,11.72999954
2023-01-02T10:03:08.288Z,11.72999954
2023-01-02T10:04:04.357Z,11.69999981
2023-01-02T10:05:00.834Z,11.72000027
2023-01-02T10:06:05.227Z,11.71000004
2023-01-02T10:06:59.520Z,11.71000004
2023-01-02T10:08:01.447Z,11.69999981
2023-01-02T10:08:59.531Z,11.68000031
2023-01-02T10:10:00.641Z,11.67000008
2023-01-02T10:10:56.044Z,11.65999985
2023-01-02T10:12:54.900Z,11.61999989
2023-01-02T10:14:18.895Z,11.60000038
2023-01-02T10:14:53.245Z,11.64000034
2023-01-02T10:15:54.931Z,11.67000008
2023-01-02T10:17:52.827Z,11.68000031
2023-01-02T10:18:50.259Z,11.65999985
2023-01-02T10:19:50.146Z,11.65999985
2023-01-02T10:20:45.159Z,11.64000034
2023-01-02T10:21:44.791Z,11.64000034
2023-01-02T10:22:44.815Z,11.61999989
2023-01-02T10:23:41.355Z,11.60999966
2023-01-02T10:24:47.911Z,11.59000015
2023-01-02T10:25:45.622Z,11.56999969
2023-01-02T10:25:52.753Z,11.56999969
2023-01-02T10:25:53.204Z,11.56999969
2023-01-02T10:26:47.802Z,11.59000015
2023-01-02T10:28:53.964Z,11.64999962
2023-01-02T10:29:47.249Z,11.64000034
2023-01-02T10:30:53.516Z,11.60000038
2023-01-02T10:31:51.441Z,11.59000015
2023-01-02T10:33:44.618Z,11.60000038
2023-01-02T10:35:10.208Z,11.56999969
2023-01-02T10:35:54.128Z,11.56999969
2023-01-02T10:37:51.998Z,11.56999969
2023-01-02T10:38:52.054Z,11.55000019
2023-01-02T10:39:55.783Z,11.5
2023-01-02T10:40:56.426Z,11.44999981
2023-01-02T10:42:59.768Z,11.43999958
2023-01-02T10:43:57.792Z,11.42000008
2023-01-02T10:44:53.326Z,11.40999985
2023-01-02T10:45:54.706Z,11.42000008
2023-01-02T10:47:51.137Z,11.39999962
2023-01-02T10:48:52.297Z,11.39000034
2023-01-02T10:49:48.189Z,11.36999989
2023-01-02T10:50:44.757Z,11.36999989
2023-01-02T10:51:43.071Z,11.36999989
2023-01-02T10:52:43.617Z,11.35999966
2023-01-02T10:53:38.795Z,11.35000038
2023-01-02T10:54:48.354Z,11.34000015
2023-01-02T10:54:51.128Z,11.34000015
2023-01-02T10:55:40.172Z,11.35000038
2023-01-02T10:56:43.638Z,11.39000034
2023-01-02T10:57:37.287Z,11.46000004
2023-01-02T10:58:47.990Z,11.46000004
2023-01-02T10:59:45.367Z,11.46000004
2023-01-02T11:00:43.058Z,11.47000027
2023-01-02T11:01:46.656Z,11.44999981
2023-01-02T11:02:43.368Z,11.43000031
2023-01-02T11:03:47.751Z,11.40999985
2023-01-02T11:04:44.869Z,11.39999962
2023-01-02T11:05:46.565Z,11.39000034
2023-01-02T11:06:43.631Z,11.40999985
2023-01-02T11:07:48.102Z,11.42000008
2023-01-02T11:08:44.377Z,11.39000034
2023-01-02T11:09:47.651Z,11.38000011
2023-01-02T11:10:49.229Z,11.39000034
2023-01-02T11:11:18.837Z,11.39000034
2023-01-02T11:13:16.359Z,11.52999973
2023-01-02T11:13:40.624Z,11.60000038
2023-01-02T11:14:45.304Z,11.69999981
2023-01-02T11:15:47.387Z,11.72999954
2023-01-02T11:16:46.432Z,11.68999958
2023-01-02T11:18:55.067Z,11.64000034
2023-01-02T11:20:00.193Z,11.59000015
2023-01-02T11:20:57.385Z,11.56999969
2023-01-02T11:23:04.780Z,11.52000046
2023-01-02T11:24:10.797Z,11.47000027
2023-01-02T11:25:09.949Z,11.44999981
2023-01-02T11:26:12.309Z,11.43999958
2023-01-02T11:28:11.524Z,11.44999981
2023-01-02T11:29:14.060Z,11.44999981
2023-01-02T11:30:14.370Z,11.43999958
2023-01-02T11:31:15.401Z,11.40999985
2023-01-02T11:33:17.499Z,11.39999962
2023-01-02T11:34:14.121Z,11.40999985
2023-01-02T11:35:10.468Z,11.43000031
2023-01-02T11:36:17.226Z,11.42000008
2023-01-02T11:38:16.870Z,11.44999981
2023-01-02T11:39:17.860Z,11.43000031
2023-01-02T11:40:20.478Z,11.43000031
2023-01-02T11:41:22.337Z,11.42000008
2023-01-02T11:42:26.525Z,11.42000008
2023-01-02T11:43:28.649Z,11.38000011
2023-01-02T11:44:28.393Z,11.35999966
2023-01-02T11:45:31.589Z,11.34000015
2023-01-02T11:46:56.536Z,11.32999992
2023-01-02T11:47:38.097Z,11.35999966
2023-01-02T11:48:42.903Z,11.39999962
2023-01-02T11:49:35.787Z,11.43000031
2023-01-02T11:50:35.615Z,11.39999962
2023-01-02T11:51:34.121Z,11.39999962
2023-01-02T11:53:31.762Z,11.39000034
2023-01-02T11:54:31.595Z,11.39999962
2023-01-02T11:55:34.251Z,11.38000011
2023-01-02T11:56:37.710Z,11.36999989
2023-01-02T11:58:34.775Z,11.43000031
2023-01-02T11:59:28.106Z,11.43999958
2023-01-02T12:00:28.078Z,11.43000031
2023-01-02T12:02:51.355Z,11.39999962
2023-01-02T12:03:31.403Z,11.39999962
2023-01-02T12:05:40.634Z,11.44999981
2023-01-02T12:06:17.440Z,11.47999954
2023-01-02T12:07:17.670Z,11.55000019
2023-01-02T12:08:16.125Z,11.64000034
2023-01-02T12:09:21.232Z,11.64999962
2023-01-02T12:12:21.217Z,11.60000038
2023-01-02T12:13:06.723Z,11.72000027
2023-01-02T12:17:48.941Z,11.82999992
2023-01-02T12:17:57.106Z,12.02000046
2023-01-02T12:37:28.351Z,12.71000004
2023-01-02T12:47:33.751Z,12.76000023
2023-01-02T12:52:56.785Z,12.77000046
2023-01-02T13:03:00.300Z,12.68999958
2023-01-02T13:03:25.463Z,12.82999992
2023-01-02T13:04:24.556Z,12.88000011
2023-01-02T13:05:26.921Z,12.81000042
2023-01-02T13:06:44.907Z,12.68999958
2023-01-02T13:06:45.245Z,12.68999958
2023-01-02T13:06:45.477Z,12.68999958
2023-01-02T13:08:19.586Z,12.57999992
2023-01-02T13:10:25.165Z,12.46000004
2023-01-02T13:11:05.304Z,12.36999989
2023-01-02T13:13:06.166Z,12.31000042
2023-01-02T13:22:39.638Z,12.68000031
2023-01-02T13:27:43.161Z,12.88000011
2023-01-02T13:32:52.979Z,13.06000042
2023-01-02T13:38:10.033Z,13.10999966
2023-01-02T13:38:20.110Z,13.18999958
2023-01-02T13:39:22.541Z,13.27000046
2023-01-02T13:40:20.246Z,13.22000027
2023-01-02T13:41:17.134Z,13.06000042
2023-01-02T13:42:18.521Z,12.86999989
2023-01-02T13:43:18.473Z,12.68999958
2023-01-02T13:44:23.389Z,12.56000042
2023-01-02T13:45:17.808Z,12.44999981
2023-01-02T13:46:53.147Z,12.35000038
2023-01-02T13:47:01.013Z,12.35000038
2023-01-02T13:47:01.511Z,12.35000038
2023-01-02T13:47:11.033Z,12.27999973
2023-01-02T13:48:10.455Z,12.25
2023-01-02T13:49:05.645Z,12.15999985
2023-01-02T13:50:04.028Z,12.09000015
2023-01-02T13:50:57.561Z,12.02000046
2023-01-02T13:51:56.549Z,11.96000004
2023-01-02T13:52:53.182Z,11.86999989
2023-01-02T13:53:53.616Z,11.82999992
2023-01-02T13:54:52.709Z,11.78999996
2023-01-02T13:55:53.154Z,11.75
2023-01-02T13:56:49.507Z,11.69999981
2023-01-02T13:58:45.341Z,11.60999966
2023-01-02T13:59:50.250Z,11.57999992
2023-01-02T14:00:41.767Z,11.57999992
2023-01-02T14:01:40.280Z,11.56999969
2023-01-02T14:02:38.956Z,11.56999969
2023-01-02T14:03:39.698Z,11.51000023
2023-01-02T14:04:33.939Z,11.51000023
2023-01-02T14:05:34.957Z,11.48999977
2023-01-02T14:06:27.248Z,11.46000004
2023-01-02T14:08:28.942Z,11.44999981
2023-01-02T14:09:26.469Z,11.43999958
2023-01-02T14:10:24.280Z,11.43000031
2023-01-02T14:11:17.104Z,11.43999958
2023-01-02T14:13:13.057Z,11.43000031
2023-01-02T14:14:11.198Z,11.42000008
2023-01-02T14:16:17.006Z,11.47000027
2023-01-02T14:16:36.758Z,11.56000042
2023-01-02T14:18:32.358Z,11.69999981
2023-01-02T14:19:31.750Z,11.68000031
2023-01-02T14:20:31.836Z,11.64000034
2023-01-02T14:21:31.898Z,11.60999966
2023-01-02T14:23:31.735Z,11.47999954
2023-01-02T14:24:29.494Z,11.47000027
2023-01-02T14:24:30.353Z,11.47000027
2023-01-02T14:25:25.498Z,11.47000027
2023-01-02T14:26:20.764Z,11.44999981
2023-01-02T14:28:14.705Z,11.39999962
2023-01-02T14:29:18.161Z,11.36999989
2023-01-02T14:30:10.707Z,11.35999966
2023-01-02T14:31:09.928Z,11.35999966
2023-01-02T14:32:10.195Z,11.35999966
2023-01-02T14:33:10.018Z,11.32999992
2023-01-02T14:34:07.146Z,11.28999996
2023-01-02T14:35:09.379Z,11.25
2023-01-02T14:36:05.270Z,11.23999977
2023-01-02T14:38:04.231Z,11.26000023
2023-01-02T14:39:05.127Z,11.22999954
2023-01-02T14:40:01.201Z,11.22000027
2023-01-02T14:41:02.218Z,11.21000004
2023-01-02T14:43:02.917Z,11.17000008
2023-01-02T14:43:59.144Z,11.17000008
2023-01-02T14:44:58.649Z,11.14000034
2023-01-02T14:45:54.080Z,11.11999989
2023-01-02T14:46:54.897Z,11.11999989
2023-01-02T14:47:48.201Z,11.11999989
2023-01-02T14:48:51.825Z,11.14000034
2023-01-02T14:49:47.623Z,11.14000034
2023-01-02T14:50:48.040Z,11.13000011
2023-01-02T14:51:47.134Z,11.11999989
2023-01-02T14:52:42.192Z,11.10000038
2023-01-02T14:53:51.509Z,11.06999969
2023-01-02T14:54:49.204Z,11.07999992
2023-01-02T14:55:50.071Z,11.06999969
2023-01-02T14:56:45.543Z,11.06000042
2023-01-02T14:58:49.037Z,11.02999973
2023-01-02T14:59:41.565Z,11.02000046
2023-01-02T15:00:45.670Z,11.01000023
2023-01-02T15:01:44.429Z,11.02000046
2023-01-02T15:04:27.148Z,11.21000004
2023-01-02T15:06:44.859Z,11.64000034
2023-01-02T15:08:27.201Z,11.65999985
2023-01-02T15:09:30.694Z,11.56999969
2023-01-02T15:10:27.045Z,11.48999977
2023-01-02T15:11:27.734Z,11.39999962
2023-01-02T15:12:25.078Z,11.35999966
2023-01-02T15:13:23.836Z,11.27000046
2023-01-02T15:14:23.619Z,11.22999954
2023-01-02T15:15:22.805Z,11.18999958
2023-01-02T15:16:18.095Z,11.14999962
2023-01-02T15:17:23.973Z,11.15999985
2023-01-02T15:18:20.147Z,11.22000027
2023-01-02T18:02:09.542Z,12.94999981
2023-01-02T18:03:33.467Z,12.77000046
2023-01-02T18:04:35.992Z,12.48999977
2023-01-02T18:05:31.288Z,12.14000034
2023-01-02T18:06:29.925Z,11.86999989
2023-01-02T18:08:19.966Z,11.35000038
2023-01-02T18:09:11.898Z,11.14999962
2023-01-02T18:10:12.569Z,10.98999977
2023-01-02T18:10:19.413Z,10.98999977
2023-01-02T18:10:20.776Z,10.98999977
2023-01-02T18:11:05.837Z,10.82999992
2023-01-02T18:11:58.395Z,10.72000027
2023-01-02T18:13:50.629Z,10.47999954
2023-01-02T18:14:47.319Z,10.39999962
2023-01-02T18:15:48.530Z,10.25
2023-01-02T18:16:49.727Z,10.13000011
2023-01-02T18:18:36.895Z,9.949999809
2023-01-02T18:19:29.635Z,9.899999619
2023-01-02T18:20:28.081Z,9.819999695
2023-01-02T18:21:23.738Z,9.760000229
2023-01-02T18:23:12.309Z,9.659999847
2023-01-02T18:24:07.193Z,9.640000343
2023-01-02T18:25:04.193Z,9.600000381
2023-01-02T18:26:10.916Z,9.539999962
2023-01-02T18:27:00.433Z,9.520000458
2023-01-02T18:28:01.734Z,9.5
2023-01-02T18:29:09.812Z,9.479999542
2023-01-02T18:29:10.233Z,9.479999542
2023-01-02T18:30:02.863Z,9.470000267
2023-01-02T18:30:55.396Z,9.449999809
2023-01-02T18:31:58.256Z,9.43999958
2023-01-02T18:32:48.831Z,9.430000305
2023-01-02T18:33:44.519Z,9.409999847
2023-01-02T18:34:48.203Z,9.369999886
2023-01-02T18:34:50.304Z,9.369999886
2023-01-02T18:35:58.069Z,9.350000381
2023-01-02T18:35:58.818Z,9.350000381
2023-01-02T18:36:42.707Z,9.380000114
2023-01-02T18:37:43.864Z,9.43999958
2023-01-02T18:38:40.309Z,9.430000305
2023-01-02T18:39:32.735Z,9.390000343
2023-01-02T18:40:34.898Z,9.359999657
2023-01-02T18:41:27.360Z,9.319999695
2023-01-02T18:43:18.458Z,9.260000229
2023-01-02T18:44:13.146Z,9.239999771
2023-01-02T18:45:12.044Z,9.220000267
2023-01-02T18:46:09.891Z,9.199999809
2023-01-02T18:47:09.455Z,9.170000076
2023-01-02T18:47:59.522Z,9.149999619
2023-01-02T18:48:59.354Z,9.159999847
2023-01-02T18:50:03.557Z,9.149999619
2023-01-02T18:51:02.814Z,9.149999619
2023-01-02T18:51:52.529Z,9.149999619
2023-01-02T18:53:29.327Z,9.199999809
2023-01-02T18:54:09.529Z,9.239999771
2023-01-02T18:55:12.943Z,9.270000458
2023-01-02T18:56:09.256Z,9.25
2023-01-02T18:57:08.521Z,9.229999542
2023-01-02T18:58:12.145Z,9.210000038
2023-01-02T18:59:06.429Z,9.180000305
2023-01-02T19:00:05.806Z,9.159999847
2023-01-02T19:01:01.502Z,9.149999619
2023-01-02T19:03:00.044Z,9.109999657
2023-01-02T19:04:00.411Z,9.109999657
2023-01-02T19:05:00.172Z,9.100000381
2023-01-02T19:05:55.041Z,9.090000153
2023-01-02T19:06:55.985Z,9.079999924
2023-01-02T19:07:54.269Z,9.079999924
2023-01-02T19:08:56.256Z,9.079999924
2023-01-02T19:09:52.637Z,9.06000042
2023-01-02T19:10:53.405Z,9.050000191
2023-01-02T19:11:49.793Z,9.069999695
2023-01-02T19:12:52.623Z,9.06000042
2023-01-02T19:13:55.214Z,9.039999962
2023-01-02T19:13:58.743Z,9.039999962
2023-01-02T19:14:48.271Z,9.06000042
2023-01-02T19:15:47.564Z,9.090000153
2023-01-02T19:16:44.135Z,9.100000381
2023-01-02T19:17:47.524Z,9.090000153
2023-01-02T19:18:44.228Z,9.069999695
2023-01-02T19:19:43.741Z,9.039999962
2023-01-02T19:20:38.182Z,9.020000458
2023-01-02T19:21:39.530Z,9.010000229
2023-01-02T19:23:36.731Z,9
2023-01-02T19:24:29.097Z,9
2023-01-02T19:26:19.547Z,9.090000153
2023-01-02T19:28:14.026Z,9.470000267
2023-01-02T19:29:10.654Z,9.539999962
2023-01-02T19:30:18.989Z,9.539999962
2023-01-02T19:30:20.925Z,9.539999962
2023-01-02T19:31:10.993Z,9.5
2023-01-02T19:32:08.069Z,9.449999809
2023-01-02T19:33:08.930Z,9.399999619
2023-01-02T19:34:05.690Z,9.350000381
2023-01-02T19:35:06.011Z,9.329999924
2023-01-02T19:36:01.325Z,9.31000042
2023-01-02T19:38:00.155Z,9.25
2023-01-02T19:38:59.249Z,9.239999771
2023-01-02T19:39:55.236Z,9.229999542
2023-01-02T19:40:54.387Z,9.199999809
2023-01-02T19:41:50.835Z,9.18999958
2023-01-02T19:42:50.657Z,9.180000305
2023-01-02T19:43:46.033Z,9.18999958
2023-01-02T19:44:49.092Z,9.170000076
2023-01-02T19:45:44.549Z,9.149999619
2023-01-02T19:46:46.667Z,9.140000343
2023-01-02T19:47:39.202Z,9.159999847
2023-01-02T19:48:40.343Z,9.130000114
2023-01-02T19:49:35.727Z,9.159999847
2023-01-02T19:50:36.962Z,9.159999847
2023-01-02T19:51:29.795Z,9.180000305
2023-01-02T19:52:31.568Z,9.199999809
2023-01-02T19:53:24.086Z,9.199999809
2023-01-02T19:54:27.496Z,9.199999809
2023-01-02T19:55:19.829Z,9.210000038
2023-01-02T19:56:20.013Z,9.239999771
2023-01-02T19:58:23.463Z,9.289999962
2023-01-02T19:59:19.625Z,9.289999962
2023-01-02T20:00:21.600Z,9.31000042
2023-01-02T20:01:14.283Z,9.31000042
2023-01-02T20:03:12.665Z,9.319999695
2023-01-02T20:04:21.048Z,9.329999924
2023-01-02T20:05:22.644Z,9.319999695
2023-01-02T20:06:20.124Z,9.31000042
2023-01-02T20:07:16.620Z,9.350000381
2023-01-02T20:08:14.173Z,9.319999695
2023-01-02T20:09:15.581Z,9.300000191
2023-01-02T20:10:12.398Z,9.300000191
2023-01-02T20:11:16.868Z,9.31000042
2023-01-02T20:12:08.752Z,9.329999924
2023-01-02T20:13:13.023Z,9.350000381
2023-01-02T20:14:05.415Z,9.369999886
2023-01-02T20:15:07.547Z,9.369999886
2023-01-02T20:16:04.633Z,9.369999886
2023-01-02T20:18:22.641Z,9.479999542
2023-01-02T20:19:19.782Z,9.760000229
2023-01-02T20:20:18.551Z,9.989999771
2023-01-02T20:21:18.574Z,10.05000019
2023-01-02T20:23:16.566Z,9.970000267
2023-01-02T20:24:11.816Z,9.930000305
2023-01-02T20:25:12.858Z,9.869999886
2023-01-02T20:26:08.971Z,9.81000042
2023-01-02T20:28:05.405Z,9.720000267
2023-01-02T20:29:04.798Z,9.710000038
2023-01-02T20:30:03.816Z,9.680000305
2023-01-02T20:30:59.016Z,9.649999619
2023-01-02T20:32:00.277Z,9.630000114
2023-01-02T20:32:52.650Z,9.619999886
2023-01-02T20:33:54.355Z,9.619999886
2023-01-02T20:34:47.116Z,9.609999657
2023-01-02T20:35:49.016Z,9.609999657
2023-01-02T20:36:45.893Z,9.609999657
2023-01-02T20:37:46.830Z,9.609999657
2023-01-02T20:38:52.707Z,9.619999886
2023-01-02T20:39:54.980Z,9.630000114
2023-01-02T20:40:49.319Z,9.609999657
2023-01-02T20:41:51.100Z,9.609999657
2023-01-02T20:42:48.938Z,9.659999847
2023-01-02T20:43:50.099Z,9.649999619
2023-01-02T20:44:44.446Z,9.640000343
2023-01-02T20:45:46.678Z,9.619999886
2023-01-02T20:46:38.629Z,9.590000153
2023-01-02T20:47:39.995Z,9.590000153
2023-01-02T20:48:38.214Z,9.590000153
2023-01-02T20:49:40.111Z,9.56000042
2023-01-02T20:50:34.437Z,9.569999695
2023-01-02T20:51:37.058Z,9.579999924
2023-01-02T20:53:36.317Z,9.630000114
2023-01-02T20:54:39.075Z,9.609999657
2023-01-02T20:55:36.671Z,9.619999886
2023-01-02T20:56:36.651Z,9.619999886
2023-01-02T20:57:33.057Z,9.600000381
2023-01-02T20:58:34.242Z,9.56000042
2023-01-02T20:59:28.901Z,9.529999733
2023-01-02T21:00:30.882Z,9.550000191
2023-01-02T21:01:26.803Z,9.579999924
2023-01-02T21:02:25.849Z,9.600000381
2023-01-02T21:03:24.871Z,9.579999924
2023-01-02T21:05:26.207Z,9.619999886
2023-01-02T21:05:53.996Z,9.710000038
2023-01-02T21:06:57.491Z,9.81000042
2023-01-02T21:08:55.795Z,9.789999962
2023-01-02T21:09:53.989Z,9.779999733
2023-01-02T21:10:48.415Z,9.760000229
2023-01-02T21:11:48.052Z,9.75
2023-01-02T21:12:44.436Z,9.75
2023-01-02T21:13:45.904Z,9.739999771
2023-01-02T21:14:43.204Z,9.699999809
2023-01-02T21:15:42.664Z,9.659999847
2023-01-02T21:16:54.728Z,9.649999619
2023-01-02T21:17:56.618Z,9.640000343
2023-01-02T21:18:48.664Z,9.640000343
2023-01-02T21:19:50.832Z,9.640000343
2023-01-02T21:20:47.631Z,9.630000114
2023-01-02T21:21:42.964Z,9.630000114
2023-01-02T21:23:41.101Z,9.640000343
2023-01-02T21:24:40.534Z,9.630000114
2023-01-02T21:25:34.910Z,9.619999886
2023-01-02T21:26:35.302Z,9.579999924
2023-01-02T21:28:32.759Z,9.550000191
2023-01-02T21:29:25.420Z,9.520000458
2023-01-02T21:30:37.282Z,9.489999771
2023-01-02T21:31:40.471Z,9.479999542
2023-01-02T21:32:37.809Z,9.5
2023-01-02T21:33:37.827Z,9.489999771
2023-01-02T21:34:38.084Z,9.479999542
2023-01-02T21:36:30.297Z,9.5
2023-01-02T21:36:50.638Z,9.590000153
2023-01-02T21:37:49.831Z,9.710000038
2023-01-02T21:38:56.802Z,9.75
2023-01-02T21:39:54.980Z,9.729999542
2023-01-02T21:40:55.315Z,9.640000343
2023-01-02T21:41:55.885Z,9.630000114
2023-01-02T21:43:51.414Z,9.590000153
2023-01-02T21:44:54.155Z,9.550000191
2023-01-02T21:45:46.999Z,9.539999962
2023-01-02T21:46:50.574Z,9.550000191
2023-01-02T21:48:51.892Z,9.579999924
2023-01-02T21:49:48.692Z,9.579999924
2023-01-02T21:50:51.121Z,9.579999924
2023-01-02T21:51:43.485Z,9.600000381
2023-01-02T21:53:41.473Z,9.550000191
2023-01-02T21:54:36.232Z,9.539999962
2023-01-02T21:55:35.736Z,9.550000191
2023-01-02T21:56:34.685Z,9.529999733
2023-01-02T21:58:02.737Z,9.529999733
2023-01-02T21:58:11.119Z,9.529999733
2023-01-02T21:58:11.474Z,9.529999733
2023-01-02T21:58:33.524Z,9.550000191
2023-01-02T21:59:32.986Z,9.600000381
2023-01-02T22:00:28.336Z,9.600000381
2023-01-02T22:01:29.047Z,9.600000381
2023-01-02T22:02:32.813Z,9.590000153
2023-01-02T22:02:36.759Z,9.590000153
2023-01-02T22:02:38.669Z,9.590000153
2023-01-02T22:03:25.959Z,9.619999886
2023-01-02T22:04:22.275Z,9.640000343
2023-01-02T22:05:21.852Z,9.630000114
2023-01-02T22:06:19.538Z,9.590000153
2023-01-02T22:08:18.736Z,9.520000458
2023-01-02T22:09:17.981Z,9.5
2023-01-02T22:10:18.499Z,9.5
2023-01-02T22:11:20.689Z,9.470000267
2023-01-02T22:12:15.890Z,9.430000305
2023-01-02T22:13:19.268Z,9.380000114
2023-01-02T22:14:12.222Z,9.359999657
2023-01-02T22:15:22.873Z,9.31000042
2023-01-02T22:16:20.850Z,9.300000191
2023-01-02T22:18:18.797Z,9.279999733
2023-01-02T22:19:22.891Z,9.260000229
2023-01-02T22:20:22.915Z,9.25
2023-01-02T22:21:22.082Z,9.25
2023-01-02T22:23:49.353Z,9.220000267
2023-01-02T22:24:39.128Z,9.210000038
2023-01-02T22:24:44.253Z,9.210000038
2023-01-02T22:24:44.988Z,9.210000038
2023-01-02T22:25:35.553Z,9.25
2023-01-02T22:26:33.007Z,9.31000042
2023-01-02T22:27:39.242Z,9.319999695
2023-01-02T22:28:38.648Z,9.300000191
2023-01-02T22:30:18.645Z,9.279999733
2023-01-02T22:30:20.495Z,9.279999733
2023-01-02T22:30:42.367Z,9.300000191
2023-01-02T22:31:41.666Z,9.31000042
2023-01-02T22:32:54.566Z,9.31000042
2023-01-02T22:33:57.814Z,9.300000191
2023-01-02T22:34:53.158Z,9.289999962
2023-01-02T22:35:54.975Z,9.260000229
2023-01-02T22:36:57.828Z,9.239999771
2023-01-02T22:39:27.551Z,9.180000305
2023-01-02T22:39:28.080Z,9.180000305
2023-01-02T22:39:29.557Z,9.180000305
2023-01-02T22:40:08.119Z,9.149999619
2023-01-02T22:41:08.015Z,9.180000305
2023-01-02T22:42:03.166Z,9.210000038
2023-01-02T22:43:06.312Z,9.210000038
2023-01-02T22:44:02.832Z,9.159999847
2023-01-02T22:45:03.861Z,9.149999619
2023-01-02T22:46:00.490Z,9.149999619
2023-01-02T22:47:04.544Z,9.100000381
2023-01-02T22:49:04.249Z,9.039999962
2023-01-02T22:50:11.810Z,9
2023-01-02T22:50:12.513Z,9
2023-01-02T22:51:07.247Z,9
2023-01-02T22:53:13.420Z,9
2023-01-02T22:54:14.499Z,9.010000229
2023-01-02T22:55:10.251Z,9.020000458
2023-01-02T22:56:07.646Z,9.029999733
2023-01-02T22:58:06.290Z,9.010000229
2023-01-02T22:59:11.652Z,8.989999771
2023-01-02T23:00:06.933Z,8.949999809
2023-01-02T23:01:23.662Z,8.970000267
2023-01-02T23:03:18.446Z,8.970000267
2023-01-02T23:04:13.259Z,8.930000305
2023-01-02T23:05:15.319Z,8.930000305
2023-01-02T23:06:18.456Z,8.930000305
2023-01-02T23:06:22.237Z,8.930000305
2023-01-02T23:09:04.531Z,9.090000153
2023-01-02T23:10:06.180Z,9.119999886
2023-01-02T23:11:02.813Z,9.130000114
2023-01-02T23:12:04.021Z,9.079999924
2023-01-02T23:14:02.636Z,9.039999962
2023-01-02T23:14:57.350Z,9.029999733
2023-01-02T23:16:30.200Z,9.06000042
2023-01-02T23:18:08.880Z,9.06000042
2023-01-02T23:19:07.476Z,9.029999733
2023-01-02T23:20:02.968Z,9
2023-01-02T23:21:02.574Z,8.960000038
2023-01-02T23:22:00.636Z,8.930000305
2023-01-02T23:23:59.918Z,8.890000343
2023-01-02T23:24:59.032Z,8.850000381
2023-01-02T23:25:55.530Z,8.829999924
2023-01-02T23:27:01.697Z,8.800000191
2023-01-02T23:29:08.000Z,8.81000042
2023-01-02T23:29:09.118Z,8.81000042
2023-01-02T23:29:56.696Z,8.840000153
2023-01-02T23:30:57.918Z,8.850000381
2023-01-02T23:32:00.569Z,8.840000153
2023-01-02T23:34:02.107Z,8.81000042
2023-01-02T23:34:57.340Z,8.760000229
2023-01-02T23:35:56.375Z,8.739999771
2023-01-02T23:36:51.619Z,8.720000267
2023-01-02T23:38:51.461Z,8.680000305
2023-01-02T23:39:52.858Z,8.68999958
2023-01-02T23:40:48.074Z,8.659999847
2023-01-02T23:41:50.748Z,8.670000076
2023-01-02T23:43:54.851Z,8.68999958
2023-01-02T23:44:49.338Z,8.699999809
2023-01-02T23:46:01.311Z,8.710000038
2023-01-02T23:46:57.226Z,8.699999809
2023-01-02T23:48:52.332Z,8.720000267
2023-01-02T23:49:58.888Z,8.729999542
2023-01-02T23:50:52.753Z,8.739999771
2023-01-02T23:51:54.663Z,8.720000267
2023-01-02T23:52:47.521Z,8.720000267
2023-01-02T23:53:50.211Z,8.710000038
2023-01-02T23:54:42.753Z,8.680000305
2023-01-02T23:55:49.979Z,8.710000038
2023-01-02T23:56:42.553Z,8.680000305
2023-01-02T23:57:41.941Z,8.659999847
2023-01-02T23:59:31.327Z,8.659999847
2023-01-02T23:59:53.407Z,8.68999958
